sensor_id;sensor_type;location;lat;lon;timestamp;P1;durP1;ratioP1;P2;durP2;ratioP2
4182;SDS011;2105;52.300;9.182;2024-01-07T00:02:11;24.73;;;16.80;;
4182;SDS011;2105;52.300;9.182;2024-01-07T00:04:37;21.90;;;14.10;;
4182;SDS011;2105;52.300;9.182;2024-01-07T00:07:05;20.67;;;15.10;;
4182;SDS011;2105;52.300;9.182;2024-01-07T00:09:32;22.70;;;15.73;;
4182;SDS011;2105;52.300;9.182;2024-01-07T00:11:58;19.60;;;15.63;;
4182;SDS011;2105;52.300;9.182;2024-01-07T00:14:25;17.57;;;13.70;;
4182;SDS011;2105;52.300;9.182;2024-01-07T00:16:53;25.77;;;15.50;;
4182;SDS011;2105;52.300;9.182;2024-01-07T00:19:20;23.33;;;15.37;;
4182;SDS011;2105;52.300;9.182;2024-01-07T00:21:47;21.07;;;15.60;;
4182;SDS011;2105;52.300;9.182;2024-01-07T00:24:14;19.53;;;15.40;;
4182;SDS011;2105;52.300;9.182;2024-01-07T00:26:41;21.20;;;15.47;;
4182;SDS011;2105;52.300;9.182;2024-01-07T00:29:08;23.90;;;15.00;;
4182;SDS011;2105;52.300;9.182;2024-01-07T00:31:34;25.57;;;16.83;;
4182;SDS011;2105;52.300;9.182;2024-01-07T00:34:02;25.33;;;16.33;;
4182;SDS011;2105;52.300;9.182;2024-01-07T00:36:29;22.43;;;16.20;;
4182;SDS011;2105;52.300;9.182;2024-01-07T00:38:56;22.37;;;16.13;;
4182;SDS011;2105;52.300;9.182;2024-01-07T00:41:22;23.40;;;15.63;;
4182;SDS011;2105;52.300;9.182;2024-01-07T00:43:49;24.70;;;17.47;;
4182;SDS011;2105;52.300;9.182;2024-01-07T00:46:16;21.73;;;15.10;;
4182;SDS011;2105;52.300;9.182;2024-01-07T00:48:42;28.47;;;16.20;;
4182;SDS011;2105;52.300;9.182;2024-01-07T00:51:10;22.93;;;15.87;;
4182;SDS011;2105;52.300;9.182;2024-01-07T00:53:37;22.43;;;15.93;;
4182;SDS011;2105;52.300;9.182;2024-01-07T00:56:04;26.30;;;17.03;;
4182;SDS011;2105;52.300;9.182;2024-01-07T00:58:31;26.53;;;17.20;;
4182;SDS011;2105;52.300;9.182;2024-01-07T01:00:58;27.23;;;17.60;;
4182;SDS011;2105;52.300;9.182;2024-01-07T01:03:25;20.20;;;15.63;;
4182;SDS011;2105;52.300;9.182;2024-01-07T01:05:52;25.40;;;17.90;;
4182;SDS011;2105;52.300;9.182;2024-01-07T01:08:20;32.70;;;18.33;;
4182;SDS011;2105;52.300;9.182;2024-01-07T01:10:48;25.60;;;17.53;;
4182;SDS011;2105;52.300;9.182;2024-01-07T01:13:15;22.70;;;16.20;;
4182;SDS011;2105;52.300;9.182;2024-01-07T01:15:42;23.53;;;16.70;;
4182;SDS011;2105;52.300;9.182;2024-01-07T01:18:09;25.50;;;17.67;;
4182;SDS011;2105;52.300;9.182;2024-01-07T01:20:35;26.57;;;17.73;;
4182;SDS011;2105;52.300;9.182;2024-01-07T01:23:02;26.57;;;17.57;;
4182;SDS011;2105;52.300;9.182;2024-01-07T01:25:31;23.90;;;16.37;;
4182;SDS011;2105;52.300;9.182;2024-01-07T01:27:57;22.93;;;16.30;;
4182;SDS011;2105;52.300;9.182;2024-01-07T01:30:24;24.67;;;17.07;;
4182;SDS011;2105;52.300;9.182;2024-01-07T01:32:52;27.73;;;15.50;;
4182;SDS011;2105;52.300;9.182;2024-01-07T01:35:19;25.73;;;17.27;;
4182;SDS011;2105;52.300;9.182;2024-01-07T01:37:46;25.17;;;16.83;;
4182;SDS011;2105;52.300;9.182;2024-01-07T01:40:12;23.23;;;16.23;;
4182;SDS011;2105;52.300;9.182;2024-01-07T01:42:43;19.63;;;15.97;;
4182;SDS011;2105;52.300;9.182;2024-01-07T01:45:10;24.93;;;16.50;;
4182;SDS011;2105;52.300;9.182;2024-01-07T01:47:37;25.57;;;15.63;;
4182;SDS011;2105;52.300;9.182;2024-01-07T01:50:05;25.60;;;16.87;;
4182;SDS011;2105;52.300;9.182;2024-01-07T01:52:32;20.90;;;15.40;;
4182;SDS011;2105;52.300;9.182;2024-01-07T01:55:01;22.47;;;15.67;;
4182;SDS011;2105;52.300;9.182;2024-01-07T01:57:28;27.10;;;16.53;;
4182;SDS011;2105;52.300;9.182;2024-01-07T02:00:01;21.57;;;15.50;;
4182;SDS011;2105;52.300;9.182;2024-01-07T02:02:30;28.53;;;15.33;;
4182;SDS011;2105;52.300;9.182;2024-01-07T02:04:59;25.37;;;14.60;;
4182;SDS011;2105;52.300;9.182;2024-01-07T02:07:25;20.67;;;14.73;;
4182;SDS011;2105;52.300;9.182;2024-01-07T02:09:54;21.77;;;16.07;;
4182;SDS011;2105;52.300;9.182;2024-01-07T02:12:20;24.67;;;15.43;;
4182;SDS011;2105;52.300;9.182;2024-01-07T02:14:47;21.70;;;15.17;;
4182;SDS011;2105;52.300;9.182;2024-01-07T02:17:15;24.40;;;16.77;;
4182;SDS011;2105;52.300;9.182;2024-01-07T02:19:42;27.23;;;15.47;;
4182;SDS011;2105;52.300;9.182;2024-01-07T02:22:09;25.53;;;16.60;;
4182;SDS011;2105;52.300;9.182;2024-01-07T02:24:37;25.50;;;16.87;;
4182;SDS011;2105;52.300;9.182;2024-01-07T02:27:04;27.53;;;16.93;;
4182;SDS011;2105;52.300;9.182;2024-01-07T02:29:31;26.67;;;17.33;;
4182;SDS011;2105;52.300;9.182;2024-01-07T02:31:57;29.20;;;17.40;;
4182;SDS011;2105;52.300;9.182;2024-01-07T02:34:24;25.60;;;16.30;;
4182;SDS011;2105;52.300;9.182;2024-01-07T02:36:51;24.80;;;16.83;;
4182;SDS011;2105;52.300;9.182;2024-01-07T02:39:18;22.73;;;15.67;;
4182;SDS011;2105;52.300;9.182;2024-01-07T02:41:46;23.07;;;15.60;;
4182;SDS011;2105;52.300;9.182;2024-01-07T02:44:13;27.17;;;16.30;;
4182;SDS011;2105;52.300;9.182;2024-01-07T02:46:40;23.83;;;15.70;;
4182;SDS011;2105;52.300;9.182;2024-01-07T02:49:06;25.50;;;14.67;;
4182;SDS011;2105;52.300;9.182;2024-01-07T02:51:33;25.13;;;16.63;;
4182;SDS011;2105;52.300;9.182;2024-01-07T02:54:00;24.03;;;15.43;;
4182;SDS011;2105;52.300;9.182;2024-01-07T02:56:27;28.00;;;16.90;;
4182;SDS011;2105;52.300;9.182;2024-01-07T02:58:55;28.20;;;15.90;;
4182;SDS011;2105;52.300;9.182;2024-01-07T03:01:22;20.30;;;15.70;;
4182;SDS011;2105;52.300;9.182;2024-01-07T03:03:49;22.87;;;15.80;;
4182;SDS011;2105;52.300;9.182;2024-01-07T03:06:16;23.90;;;14.90;;
4182;SDS011;2105;52.300;9.182;2024-01-07T03:08:43;27.77;;;15.20;;
4182;SDS011;2105;52.300;9.182;2024-01-07T03:11:10;21.33;;;14.23;;
4182;SDS011;2105;52.300;9.182;2024-01-07T03:13:36;24.97;;;14.67;;
4182;SDS011;2105;52.300;9.182;2024-01-07T03:16:05;23.00;;;15.53;;
4182;SDS011;2105;52.300;9.182;2024-01-07T03:18:32;19.83;;;15.40;;
4182;SDS011;2105;52.300;9.182;2024-01-07T03:20:59;23.20;;;15.53;;
4182;SDS011;2105;52.300;9.182;2024-01-07T03:23:26;20.60;;;15.40;;
4182;SDS011;2105;52.300;9.182;2024-01-07T03:25:52;22.03;;;14.53;;
4182;SDS011;2105;52.300;9.182;2024-01-07T03:28:19;22.10;;;14.37;;
4182;SDS011;2105;52.300;9.182;2024-01-07T03:30:46;17.60;;;13.70;;
4182;SDS011;2105;52.300;9.182;2024-01-07T03:33:14;22.67;;;15.10;;
4182;SDS011;2105;52.300;9.182;2024-01-07T03:35:40;21.30;;;13.63;;
4182;SDS011;2105;52.300;9.182;2024-01-07T03:38:07;25.93;;;14.50;;
4182;SDS011;2105;52.300;9.182;2024-01-07T03:40:34;22.03;;;13.90;;
4182;SDS011;2105;52.300;9.182;2024-01-07T03:43:01;24.47;;;15.67;;
4182;SDS011;2105;52.300;9.182;2024-01-07T03:45:27;19.67;;;14.10;;
4182;SDS011;2105;52.300;9.182;2024-01-07T03:47:54;18.30;;;13.00;;
4182;SDS011;2105;52.300;9.182;2024-01-07T03:50:22;18.60;;;12.50;;
4182;SDS011;2105;52.300;9.182;2024-01-07T03:52:49;19.23;;;13.33;;
4182;SDS011;2105;52.300;9.182;2024-01-07T03:55:16;18.90;;;13.17;;
4182;SDS011;2105;52.300;9.182;2024-01-07T03:57:43;24.80;;;13.30;;
4182;SDS011;2105;52.300;9.182;2024-01-07T04:00:10;18.10;;;12.93;;
4182;SDS011;2105;52.300;9.182;2024-01-07T04:02:37;18.10;;;13.17;;
4182;SDS011;2105;52.300;9.182;2024-01-07T04:05:04;26.57;;;13.00;;
4182;SDS011;2105;52.300;9.182;2024-01-07T04:07:33;15.30;;;12.10;;
4182;SDS011;2105;52.300;9.182;2024-01-07T04:10:00;23.90;;;12.17;;
4182;SDS011;2105;52.300;9.182;2024-01-07T04:12:27;20.03;;;13.47;;
4182;SDS011;2105;52.300;9.182;2024-01-07T04:14:54;17.90;;;11.23;;
4182;SDS011;2105;52.300;9.182;2024-01-07T04:17:21;19.50;;;12.60;;
4182;SDS011;2105;52.300;9.182;2024-01-07T04:19:47;16.60;;;10.83;;
4182;SDS011;2105;52.300;9.182;2024-01-07T04:22:14;15.93;;;11.70;;
4182;SDS011;2105;52.300;9.182;2024-01-07T04:24:42;13.90;;;11.30;;
4182;SDS011;2105;52.300;9.182;2024-01-07T04:27:09;19.20;;;11.20;;
4182;SDS011;2105;52.300;9.182;2024-01-07T04:29:36;14.83;;;11.47;;
4182;SDS011;2105;52.300;9.182;2024-01-07T04:32:03;24.97;;;11.60;;
4182;SDS011;2105;52.300;9.182;2024-01-07T04:34:30;14.30;;;11.13;;
4182;SDS011;2105;52.300;9.182;2024-01-07T04:36:56;12.57;;;11.00;;
4182;SDS011;2105;52.300;9.182;2024-01-07T04:39:23;13.97;;;11.13;;
4182;SDS011;2105;52.300;9.182;2024-01-07T04:41:52;15.47;;;11.60;;
4182;SDS011;2105;52.300;9.182;2024-01-07T04:44:19;12.73;;;11.10;;
4182;SDS011;2105;52.300;9.182;2024-01-07T04:46:46;18.60;;;11.40;;
4182;SDS011;2105;52.300;9.182;2024-01-07T04:49:13;15.70;;;11.33;;
4182;SDS011;2105;52.300;9.182;2024-01-07T04:51:40;18.77;;;11.27;;
4182;SDS011;2105;52.300;9.182;2024-01-07T04:54:07;13.63;;;10.87;;
4182;SDS011;2105;52.300;9.182;2024-01-07T04:56:34;12.27;;;10.97;;
4182;SDS011;2105;52.300;9.182;2024-01-07T04:59:02;14.20;;;10.37;;
4182;SDS011;2105;52.300;9.182;2024-01-07T05:01:29;15.47;;;10.23;;
4182;SDS011;2105;52.300;9.182;2024-01-07T05:03:55;13.23;;;10.33;;
4182;SDS011;2105;52.300;9.182;2024-01-07T05:06:22;15.33;;;9.97;;
4182;SDS011;2105;52.300;9.182;2024-01-07T05:08:49;11.30;;;10.10;;
4182;SDS011;2105;52.300;9.182;2024-01-07T05:11:15;14.07;;;10.50;;
4182;SDS011;2105;52.300;9.182;2024-01-07T05:13:42;13.10;;;10.33;;
4182;SDS011;2105;52.300;9.182;2024-01-07T05:16:17;11.37;;;9.80;;
4182;SDS011;2105;52.300;9.182;2024-01-07T05:18:44;13.83;;;9.43;;
4182;SDS011;2105;52.300;9.182;2024-01-07T05:21:13;10.67;;;9.37;;
4182;SDS011;2105;52.300;9.182;2024-01-07T05:23:40;12.77;;;9.03;;
4182;SDS011;2105;52.300;9.182;2024-01-07T05:26:06;11.93;;;10.63;;
4182;SDS011;2105;52.300;9.182;2024-01-07T05:28:33;12.83;;;9.83;;
4182;SDS011;2105;52.300;9.182;2024-01-07T05:30:59;10.77;;;9.70;;
4182;SDS011;2105;52.300;9.182;2024-01-07T05:33:27;12.83;;;9.13;;
4182;SDS011;2105;52.300;9.182;2024-01-07T05:35:54;11.17;;;10.00;;
4182;SDS011;2105;52.300;9.182;2024-01-07T05:38:20;10.97;;;9.87;;
4182;SDS011;2105;52.300;9.182;2024-01-07T05:40:47;10.70;;;9.67;;
4182;SDS011;2105;52.300;9.182;2024-01-07T05:43:14;12.70;;;9.80;;
4182;SDS011;2105;52.300;9.182;2024-01-07T05:45:40;16.20;;;10.30;;
4182;SDS011;2105;52.300;9.182;2024-01-07T05:48:07;11.30;;;10.20;;
4182;SDS011;2105;52.300;9.182;2024-01-07T05:50:35;11.93;;;10.73;;
4182;SDS011;2105;52.300;9.182;2024-01-07T05:53:02;12.27;;;10.63;;
4182;SDS011;2105;52.300;9.182;2024-01-07T05:55:29;13.73;;;10.90;;
4182;SDS011;2105;52.300;9.182;2024-01-07T05:57:56;11.73;;;10.57;;
4182;SDS011;2105;52.300;9.182;2024-01-07T06:00:23;12.80;;;11.50;;
4182;SDS011;2105;52.300;9.182;2024-01-07T06:02:49;12.47;;;11.27;;
4182;SDS011;2105;52.300;9.182;2024-01-07T06:05:16;12.50;;;10.53;;
4182;SDS011;2105;52.300;9.182;2024-01-07T06:07:44;11.67;;;10.57;;
4182;SDS011;2105;52.300;9.182;2024-01-07T06:10:11;12.13;;;10.77;;
4182;SDS011;2105;52.300;9.182;2024-01-07T06:12:37;13.03;;;11.73;;
4182;SDS011;2105;52.300;9.182;2024-01-07T06:15:04;12.17;;;10.70;;
4182;SDS011;2105;52.300;9.182;2024-01-07T06:17:31;12.07;;;11.00;;
4182;SDS011;2105;52.300;9.182;2024-01-07T06:19:58;12.90;;;11.80;;
4182;SDS011;2105;52.300;9.182;2024-01-07T06:22:26;14.47;;;11.37;;
4182;SDS011;2105;52.300;9.182;2024-01-07T06:24:54;13.37;;;12.10;;
4182;SDS011;2105;52.300;9.182;2024-01-07T06:27:20;16.27;;;12.03;;
4182;SDS011;2105;52.300;9.182;2024-01-07T06:29:47;13.17;;;11.83;;
4182;SDS011;2105;52.300;9.182;2024-01-07T06:32:14;12.30;;;11.23;;
4182;SDS011;2105;52.300;9.182;2024-01-07T06:34:40;13.67;;;12.27;;
4182;SDS011;2105;52.300;9.182;2024-01-07T06:37:07;13.10;;;11.90;;
4182;SDS011;2105;52.300;9.182;2024-01-07T06:39:35;12.73;;;11.70;;
4182;SDS011;2105;52.300;9.182;2024-01-07T06:42:04;13.97;;;12.40;;
4182;SDS011;2105;52.300;9.182;2024-01-07T06:44:31;13.10;;;12.00;;
4182;SDS011;2105;52.300;9.182;2024-01-07T06:46:58;13.30;;;12.10;;
4182;SDS011;2105;52.300;9.182;2024-01-07T06:49:24;12.80;;;11.80;;
4182;SDS011;2105;52.300;9.182;2024-01-07T06:51:51;12.63;;;11.53;;
4182;SDS011;2105;52.300;9.182;2024-01-07T06:54:18;12.73;;;11.73;;
4182;SDS011;2105;52.300;9.182;2024-01-07T06:56:44;13.50;;;11.80;;
4182;SDS011;2105;52.300;9.182;2024-01-07T06:59:12;12.70;;;11.53;;
4182;SDS011;2105;52.300;9.182;2024-01-07T07:01:39;13.13;;;12.00;;
4182;SDS011;2105;52.300;9.182;2024-01-07T07:04:06;12.80;;;11.70;;
4182;SDS011;2105;52.300;9.182;2024-01-07T07:06:39;12.63;;;11.53;;
4182;SDS011;2105;52.300;9.182;2024-01-07T07:09:05;13.23;;;12.13;;
4182;SDS011;2105;52.300;9.182;2024-01-07T07:11:32;12.87;;;11.90;;
4182;SDS011;2105;52.300;9.182;2024-01-07T07:13:59;12.80;;;11.70;;
4182;SDS011;2105;52.300;9.182;2024-01-07T07:16:27;12.90;;;11.90;;
4182;SDS011;2105;52.300;9.182;2024-01-07T07:18:54;12.50;;;11.50;;
4182;SDS011;2105;52.300;9.182;2024-01-07T07:21:20;13.43;;;12.33;;
4182;SDS011;2105;52.300;9.182;2024-01-07T07:23:48;13.13;;;12.07;;
4182;SDS011;2105;52.300;9.182;2024-01-07T07:26:14;12.33;;;11.43;;
4182;SDS011;2105;52.300;9.182;2024-01-07T07:28:41;14.30;;;13.00;;
4182;SDS011;2105;52.300;9.182;2024-01-07T07:31:08;14.23;;;12.83;;
4182;SDS011;2105;52.300;9.182;2024-01-07T07:33:39;13.40;;;12.30;;
4182;SDS011;2105;52.300;9.182;2024-01-07T07:36:06;13.73;;;12.53;;
4182;SDS011;2105;52.300;9.182;2024-01-07T07:38:33;14.13;;;12.90;;
4182;SDS011;2105;52.300;9.182;2024-01-07T07:40:59;13.90;;;12.70;;
4182;SDS011;2105;52.300;9.182;2024-01-07T07:43:26;13.33;;;12.27;;
4182;SDS011;2105;52.300;9.182;2024-01-07T07:45:53;14.77;;;13.50;;
4182;SDS011;2105;52.300;9.182;2024-01-07T07:48:20;14.17;;;12.90;;
4182;SDS011;2105;52.300;9.182;2024-01-07T07:50:48;13.37;;;12.27;;
4182;SDS011;2105;52.300;9.182;2024-01-07T07:53:15;13.63;;;12.43;;
4182;SDS011;2105;52.300;9.182;2024-01-07T07:55:42;14.87;;;13.53;;
4182;SDS011;2105;52.300;9.182;2024-01-07T07:58:08;13.00;;;12.00;;
4182;SDS011;2105;52.300;9.182;2024-01-07T08:00:35;13.23;;;12.20;;
4182;SDS011;2105;52.300;9.182;2024-01-07T08:03:02;14.00;;;12.90;;
4182;SDS011;2105;52.300;9.182;2024-01-07T08:05:29;14.10;;;12.90;;
4182;SDS011;2105;52.300;9.182;2024-01-07T08:07:57;14.13;;;12.73;;
4182;SDS011;2105;52.300;9.182;2024-01-07T08:10:23;14.17;;;12.90;;
4182;SDS011;2105;52.300;9.182;2024-01-07T08:12:50;14.00;;;12.90;;
4182;SDS011;2105;52.300;9.182;2024-01-07T08:15:17;15.70;;;14.30;;
4182;SDS011;2105;52.300;9.182;2024-01-07T08:17:43;14.13;;;12.93;;
4182;SDS011;2105;52.300;9.182;2024-01-07T08:20:10;14.63;;;13.20;;
4182;SDS011;2105;52.300;9.182;2024-01-07T08:22:37;15.40;;;13.97;;
4182;SDS011;2105;52.300;9.182;2024-01-07T08:25:06;17.13;;;13.90;;
4182;SDS011;2105;52.300;9.182;2024-01-07T08:27:33;14.27;;;13.20;;
4182;SDS011;2105;52.300;9.182;2024-01-07T08:30:02;13.97;;;12.77;;
4182;SDS011;2105;52.300;9.182;2024-01-07T08:32:29;14.87;;;13.67;;
4182;SDS011;2105;52.300;9.182;2024-01-07T08:34:56;14.37;;;12.97;;
4182;SDS011;2105;52.300;9.182;2024-01-07T08:37:22;13.37;;;12.33;;
4182;SDS011;2105;52.300;9.182;2024-01-07T08:39:49;13.20;;;12.10;;
4182;SDS011;2105;52.300;9.182;2024-01-07T08:42:17;14.53;;;12.90;;
4182;SDS011;2105;52.300;9.182;2024-01-07T08:44:44;14.20;;;13.00;;
4182;SDS011;2105;52.300;9.182;2024-01-07T08:47:12;13.80;;;12.40;;
4182;SDS011;2105;52.300;9.182;2024-01-07T08:49:39;15.90;;;14.40;;
4182;SDS011;2105;52.300;9.182;2024-01-07T08:52:06;44.87;;;30.20;;
4182;SDS011;2105;52.300;9.182;2024-01-07T08:54:32;17.33;;;14.70;;
4182;SDS011;2105;52.300;9.182;2024-01-07T08:57:00;17.17;;;15.37;;
4182;SDS011;2105;52.300;9.182;2024-01-07T08:59:27;13.23;;;12.00;;
4182;SDS011;2105;52.300;9.182;2024-01-07T09:01:54;16.67;;;14.80;;
4182;SDS011;2105;52.300;9.182;2024-01-07T09:04:21;19.37;;;15.73;;
4182;SDS011;2105;52.300;9.182;2024-01-07T09:06:48;14.90;;;13.60;;
4182;SDS011;2105;52.300;9.182;2024-01-07T09:09:15;16.07;;;14.57;;
4182;SDS011;2105;52.300;9.182;2024-01-07T09:11:41;18.37;;;16.53;;
4182;SDS011;2105;52.300;9.182;2024-01-07T09:14:08;14.87;;;13.37;;
4182;SDS011;2105;52.300;9.182;2024-01-07T09:16:36;19.93;;;14.60;;
4182;SDS011;2105;52.300;9.182;2024-01-07T09:19:02;22.13;;;18.20;;
4182;SDS011;2105;52.300;9.182;2024-01-07T09:21:29;23.27;;;20.63;;
4182;SDS011;2105;52.300;9.182;2024-01-07T09:23:56;14.40;;;12.93;;
4182;SDS011;2105;52.300;9.182;2024-01-07T09:26:22;18.70;;;15.70;;
4182;SDS011;2105;52.300;9.182;2024-01-07T09:28:49;29.43;;;19.33;;
4182;SDS011;2105;52.300;9.182;2024-01-07T09:31:17;14.37;;;13.10;;
4182;SDS011;2105;52.300;9.182;2024-01-07T09:33:45;12.90;;;11.80;;
4182;SDS011;2105;52.300;9.182;2024-01-07T09:36:11;16.03;;;14.27;;
4182;SDS011;2105;52.300;9.182;2024-01-07T09:38:38;16.50;;;15.00;;
4182;SDS011;2105;52.300;9.182;2024-01-07T09:41:05;14.90;;;13.63;;
4182;SDS011;2105;52.300;9.182;2024-01-07T09:43:32;14.73;;;13.23;;
4182;SDS011;2105;52.300;9.182;2024-01-07T09:45:59;13.53;;;12.33;;
4182;SDS011;2105;52.300;9.182;2024-01-07T09:48:26;13.20;;;11.80;;
4182;SDS011;2105;52.300;9.182;2024-01-07T09:50:54;12.53;;;11.53;;
4182;SDS011;2105;52.300;9.182;2024-01-07T09:53:25;13.03;;;12.00;;
4182;SDS011;2105;52.300;9.182;2024-01-07T09:55:56;13.30;;;12.23;;
4182;SDS011;2105;52.300;9.182;2024-01-07T09:58:27;12.80;;;11.70;;
4182;SDS011;2105;52.300;9.182;2024-01-07T10:00:54;13.00;;;11.80;;
4182;SDS011;2105;52.300;9.182;2024-01-07T10:03:20;13.00;;;11.90;;
4182;SDS011;2105;52.300;9.182;2024-01-07T10:05:47;14.10;;;12.87;;
4182;SDS011;2105;52.300;9.182;2024-01-07T10:08:15;13.47;;;12.20;;
4182;SDS011;2105;52.300;9.182;2024-01-07T10:10:42;13.10;;;12.00;;
4182;SDS011;2105;52.300;9.182;2024-01-07T10:13:09;13.87;;;12.67;;
4182;SDS011;2105;52.300;9.182;2024-01-07T10:15:35;12.90;;;11.80;;
4182;SDS011;2105;52.300;9.182;2024-01-07T10:18:02;13.23;;;12.03;;
4182;SDS011;2105;52.300;9.182;2024-01-07T10:20:31;14.07;;;12.77;;
4182;SDS011;2105;52.300;9.182;2024-01-07T10:22:57;13.43;;;11.60;;
4182;SDS011;2105;52.300;9.182;2024-01-07T10:25:25;13.00;;;11.90;;
4182;SDS011;2105;52.300;9.182;2024-01-07T10:27:53;12.70;;;11.50;;
4182;SDS011;2105;52.300;9.182;2024-01-07T10:30:19;12.73;;;11.67;;
4182;SDS011;2105;52.300;9.182;2024-01-07T10:32:47;12.77;;;11.67;;
4182;SDS011;2105;52.300;9.182;2024-01-07T10:35:13;12.77;;;11.53;;
4182;SDS011;2105;52.300;9.182;2024-01-07T10:37:45;12.80;;;11.70;;
4182;SDS011;2105;52.300;9.182;2024-01-07T10:40:12;12.87;;;11.77;;
4182;SDS011;2105;52.300;9.182;2024-01-07T10:42:40;13.13;;;12.07;;
4182;SDS011;2105;52.300;9.182;2024-01-07T10:45:09;12.60;;;11.60;;
4182;SDS011;2105;52.300;9.182;2024-01-07T10:47:36;12.63;;;11.40;;
4182;SDS011;2105;52.300;9.182;2024-01-07T10:50:06;13.93;;;12.53;;
4182;SDS011;2105;52.300;9.182;2024-01-07T10:52:37;15.33;;;13.90;;
4182;SDS011;2105;52.300;9.182;2024-01-07T10:55:07;14.07;;;12.87;;
4182;SDS011;2105;52.300;9.182;2024-01-07T10:57:39;15.20;;;14.00;;
4182;SDS011;2105;52.300;9.182;2024-01-07T11:00:11;19.30;;;16.10;;
4182;SDS011;2105;52.300;9.182;2024-01-07T11:02:46;14.90;;;13.40;;
4182;SDS011;2105;52.300;9.182;2024-01-07T11:05:20;13.67;;;12.40;;
4182;SDS011;2105;52.300;9.182;2024-01-07T11:07:53;13.73;;;12.53;;
4182;SDS011;2105;52.300;9.182;2024-01-07T11:10:28;13.80;;;12.60;;
4182;SDS011;2105;52.300;9.182;2024-01-07T11:13:01;13.67;;;12.47;;
4182;SDS011;2105;52.300;9.182;2024-01-07T11:18:17;13.90;;;12.70;;
4182;SDS011;2105;52.300;9.182;2024-01-07T11:20:44;14.00;;;12.70;;
4182;SDS011;2105;52.300;9.182;2024-01-07T11:25:58;13.20;;;12.10;;
4182;SDS011;2105;52.300;9.182;2024-01-07T11:28:43;14.10;;;12.80;;
4182;SDS011;2105;52.300;9.182;2024-01-07T11:31:10;15.17;;;13.87;;
4182;SDS011;2105;52.300;9.182;2024-01-07T11:33:37;14.47;;;13.17;;
4182;SDS011;2105;52.300;9.182;2024-01-07T11:36:04;14.30;;;12.97;;
4182;SDS011;2105;52.300;9.182;2024-01-07T11:38:31;14.77;;;13.00;;
4182;SDS011;2105;52.300;9.182;2024-01-07T11:41:00;14.50;;;13.30;;
4182;SDS011;2105;52.300;9.182;2024-01-07T11:43:28;14.73;;;13.30;;
4182;SDS011;2105;52.300;9.182;2024-01-07T11:45:56;14.20;;;12.90;;
4182;SDS011;2105;52.300;9.182;2024-01-07T11:48:23;14.33;;;13.07;;
4182;SDS011;2105;52.300;9.182;2024-01-07T11:50:49;14.47;;;13.27;;
4182;SDS011;2105;52.300;9.182;2024-01-07T11:53:16;14.43;;;13.00;;
4182;SDS011;2105;52.300;9.182;2024-01-07T11:55:43;14.13;;;13.03;;
4182;SDS011;2105;52.300;9.182;2024-01-07T11:58:11;14.90;;;13.47;;
4182;SDS011;2105;52.300;9.182;2024-01-07T12:00:37;12.97;;;11.83;;
4182;SDS011;2105;52.300;9.182;2024-01-07T12:03:05;13.03;;;11.87;;
4182;SDS011;2105;52.300;9.182;2024-01-07T12:05:32;13.53;;;12.43;;
4182;SDS011;2105;52.300;9.182;2024-01-07T12:08:00;13.50;;;12.30;;
4182;SDS011;2105;52.300;9.182;2024-01-07T12:10:28;13.30;;;11.90;;
4182;SDS011;2105;52.300;9.182;2024-01-07T12:12:54;13.43;;;12.43;;
4182;SDS011;2105;52.300;9.182;2024-01-07T12:15:22;12.63;;;11.67;;
4182;SDS011;2105;52.300;9.182;2024-01-07T12:17:55;13.77;;;12.17;;
4182;SDS011;2105;52.300;9.182;2024-01-07T12:20:24;14.17;;;12.87;;
4182;SDS011;2105;52.300;9.182;2024-01-07T12:22:52;13.87;;;12.60;;
4182;SDS011;2105;52.300;9.182;2024-01-07T12:25:21;12.90;;;11.70;;
4182;SDS011;2105;52.300;9.182;2024-01-07T12:27:49;13.13;;;11.97;;
4182;SDS011;2105;52.300;9.182;2024-01-07T12:30:17;14.27;;;12.00;;
4182;SDS011;2105;52.300;9.182;2024-01-07T12:32:44;13.30;;;12.20;;
4182;SDS011;2105;52.300;9.182;2024-01-07T12:35:11;12.60;;;11.50;;
4182;SDS011;2105;52.300;9.182;2024-01-07T12:37:40;12.77;;;11.77;;
4182;SDS011;2105;52.300;9.182;2024-01-07T12:40:08;13.30;;;12.03;;
4182;SDS011;2105;52.300;9.182;2024-01-07T12:42:36;13.33;;;12.13;;
4182;SDS011;2105;52.300;9.182;2024-01-07T12:45:05;16.40;;;14.70;;
4182;SDS011;2105;52.300;9.182;2024-01-07T12:47:34;15.23;;;13.80;;
4182;SDS011;2105;52.300;9.182;2024-01-07T12:50:00;13.70;;;12.47;;
4182;SDS011;2105;52.300;9.182;2024-01-07T12:52:27;12.70;;;11.80;;
4182;SDS011;2105;52.300;9.182;2024-01-07T12:54:55;12.80;;;11.80;;
4182;SDS011;2105;52.300;9.182;2024-01-07T12:57:23;12.73;;;11.53;;
4182;SDS011;2105;52.300;9.182;2024-01-07T12:59:49;13.53;;;12.23;;
4182;SDS011;2105;52.300;9.182;2024-01-07T13:02:16;13.40;;;12.20;;
4182;SDS011;2105;52.300;9.182;2024-01-07T13:04:42;11.83;;;10.87;;
4182;SDS011;2105;52.300;9.182;2024-01-07T13:07:09;12.70;;;11.70;;
4182;SDS011;2105;52.300;9.182;2024-01-07T13:09:36;11.70;;;10.80;;
4182;SDS011;2105;52.300;9.182;2024-01-07T13:12:04;12.20;;;11.10;;
4182;SDS011;2105;52.300;9.182;2024-01-07T13:14:31;12.60;;;11.53;;
4182;SDS011;2105;52.300;9.182;2024-01-07T13:16:57;13.30;;;12.17;;
4182;SDS011;2105;52.300;9.182;2024-01-07T13:19:24;13.90;;;12.57;;
4182;SDS011;2105;52.300;9.182;2024-01-07T13:21:51;14.70;;;12.20;;
4182;SDS011;2105;52.300;9.182;2024-01-07T13:24:20;12.80;;;11.80;;
4182;SDS011;2105;52.300;9.182;2024-01-07T13:26:47;12.90;;;11.70;;
4182;SDS011;2105;52.300;9.182;2024-01-07T13:29:14;13.40;;;12.20;;
4182;SDS011;2105;52.300;9.182;2024-01-07T13:31:41;13.40;;;12.20;;
4182;SDS011;2105;52.300;9.182;2024-01-07T13:34:08;13.60;;;12.50;;
4182;SDS011;2105;52.300;9.182;2024-01-07T13:36:34;15.17;;;13.60;;
4182;SDS011;2105;52.300;9.182;2024-01-07T13:39:01;14.63;;;13.33;;
4182;SDS011;2105;52.300;9.182;2024-01-07T13:41:28;14.00;;;12.70;;
4182;SDS011;2105;52.300;9.182;2024-01-07T13:43:57;13.77;;;12.67;;
4182;SDS011;2105;52.300;9.182;2024-01-07T13:46:24;15.73;;;14.33;;
4182;SDS011;2105;52.300;9.182;2024-01-07T13:48:51;14.00;;;12.90;;
4182;SDS011;2105;52.300;9.182;2024-01-07T13:51:18;17.60;;;14.93;;
4182;SDS011;2105;52.300;9.182;2024-01-07T13:53:44;20.00;;;16.80;;
4182;SDS011;2105;52.300;9.182;2024-01-07T13:56:11;24.93;;;15.73;;
4182;SDS011;2105;52.300;9.182;2024-01-07T13:58:38;14.17;;;13.00;;
4182;SDS011;2105;52.300;9.182;2024-01-07T14:01:05;13.83;;;12.67;;
4182;SDS011;2105;52.300;9.182;2024-01-07T14:03:33;13.57;;;12.47;;
4182;SDS011;2105;52.300;9.182;2024-01-07T14:06:00;14.10;;;13.00;;
4182;SDS011;2105;52.300;9.182;2024-01-07T14:08:27;13.40;;;12.30;;
4182;SDS011;2105;52.300;9.182;2024-01-07T14:10:53;15.50;;;14.20;;
4182;SDS011;2105;52.300;9.182;2024-01-07T14:13:20;14.50;;;13.37;;
4182;SDS011;2105;52.300;9.182;2024-01-07T14:15:47;14.20;;;13.00;;
4182;SDS011;2105;52.300;9.182;2024-01-07T14:18:13;14.83;;;13.47;;
4182;SDS011;2105;52.300;9.182;2024-01-07T14:20:43;15.70;;;12.67;;
4182;SDS011;2105;52.300;9.182;2024-01-07T14:23:10;13.70;;;12.60;;
4182;SDS011;2105;52.300;9.182;2024-01-07T14:25:36;14.97;;;13.47;;
4182;SDS011;2105;52.300;9.182;2024-01-07T14:28:03;14.10;;;12.90;;
4182;SDS011;2105;52.300;9.182;2024-01-07T14:30:30;16.53;;;13.40;;
4182;SDS011;2105;52.300;9.182;2024-01-07T14:32:57;16.70;;;14.23;;
4182;SDS011;2105;52.300;9.182;2024-01-07T14:35:23;13.77;;;12.67;;
4182;SDS011;2105;52.300;9.182;2024-01-07T14:37:55;14.20;;;12.87;;
4182;SDS011;2105;52.300;9.182;2024-01-07T14:40:22;14.40;;;12.57;;
4182;SDS011;2105;52.300;9.182;2024-01-07T14:42:48;14.00;;;12.90;;
4182;SDS011;2105;52.300;9.182;2024-01-07T14:45:18;15.73;;;14.30;;
4182;SDS011;2105;52.300;9.182;2024-01-07T14:47:44;15.50;;;13.90;;
4182;SDS011;2105;52.300;9.182;2024-01-07T14:50:11;13.47;;;12.37;;
4182;SDS011;2105;52.300;9.182;2024-01-07T14:52:37;14.70;;;13.37;;
4182;SDS011;2105;52.300;9.182;2024-01-07T14:55:06;16.37;;;14.43;;